sensor_id;sensor_type;location;lat;lon;timestamp;pressure;altitude;pressure_sealevel;temperature;humidity
24746;BME280;12845;52.042;6.838;2023-08-06T00:00:03;-18518.75;;;18.27;100.00
24746;BME280;12845;52.042;6.838;2023-08-06T00:02:28;-18517.53;;;18.22;100.00
24746;BME280;12845;52.042;6.838;2023-08-06T00:04:54;-18519.31;;;18.29;100.00
24746;BME280;12845;52.042;6.838;2023-08-06T00:07:20;-18513.72;;;18.08;100.00
24746;BME280;12845;52.042;6.838;2023-08-06T00:09:45;-18514.81;;;18.12;100.00
24746;BME280;12845;52.042;6.838;2023-08-06T00:12:11;-18513.16;;;18.06;100.00
24746;BME280;12845;52.042;6.838;2023-08-06T00:14:36;-18514.13;;;18.10;100.00
24746;BME280;12845;52.042;6.838;2023-08-06T00:17:01;-18512.75;;;18.04;100.00
24746;BME280;12845;52.042;6.838;2023-08-06T00:19:27;-18512.91;;;18.05;100.00
24746;BME280;12845;52.042;6.838;2023-08-06T00:21:52;-18513.44;;;18.07;100.00
24746;BME280;12845;52.042;6.838;2023-08-06T00:24:18;-18512.91;;;18.05;100.00
24746;BME280;12845;52.042;6.838;2023-08-06T00:26:43;-18510.72;;;17.97;100.00
24746;BME280;12845;52.042;6.838;2023-08-06T00:29:08;-18511.13;;;17.98;100.00
24746;BME280;12845;52.042;6.838;2023-08-06T00:31:34;-18511.25;;;17.99;100.00
24746;BME280;12845;52.042;6.838;2023-08-06T00:33:59;-18511.25;;;17.99;100.00
24746;BME280;12845;52.042;6.838;2023-08-06T00:36:24;-18511.53;;;18.00;100.00
24746;BME280;12845;52.042;6.838;2023-08-06T00:38:50;-18510.31;;;17.95;100.00
24746;BME280;12845;52.042;6.838;2023-08-06T00:41:15;-18513.84;;;18.09;100.00
24746;BME280;12845;52.042;6.838;2023-08-06T00:43:40;-18510.97;;;17.98;100.00
24746;BME280;12845;52.042;6.838;2023-08-06T00:46:06;-18510.16;;;17.95;100.00
24746;BME280;12845;52.042;6.838;2023-08-06T00:48:32;-18510.72;;;17.97;100.00
24746;BME280;12845;52.042;6.838;2023-08-06T00:50:57;-18511.53;;;18.00;100.00
24746;BME280;12845;52.042;6.838;2023-08-06T00:53:23;-18513.44;;;18.07;100.00
24746;BME280;12845;52.042;6.838;2023-08-06T00:55:49;-18512.63;;;18.04;100.00
24746;BME280;12845;52.042;6.838;2023-08-06T00:58:15;-18511.66;;;18.00;100.00
24746;BME280;12845;52.042;6.838;2023-08-06T01:00:41;-18513.16;;;18.06;100.00
24746;BME280;12845;52.042;6.838;2023-08-06T01:03:07;-18512.91;;;18.05;100.00
24746;BME280;12845;52.042;6.838;2023-08-06T01:05:32;-18515.22;;;18.14;100.00
24746;BME280;12845;52.042;6.838;2023-08-06T01:13:24;-18516.56;;;18.19;100.00
24746;BME280;12845;52.042;6.838;2023-08-06T01:15:55;-18515.47;;;18.15;100.00
24746;BME280;12845;52.042;6.838;2023-08-06T01:18:25;-18516.03;;;18.17;100.00
24746;BME280;12845;52.042;6.838;2023-08-06T01:20:50;-18516.03;;;18.17;100.00
24746;BME280;12845;52.042;6.838;2023-08-06T01:23:16;-18516.03;;;18.17;100.00
24746;BME280;12845;52.042;6.838;2023-08-06T01:28:27;-18514.94;;;18.13;100.00
24746;BME280;12845;52.042;6.838;2023-08-06T01:30:59;-18515.34;;;18.14;100.00
24746;BME280;12845;52.042;6.838;2023-08-06T01:33:27;-18516.97;;;18.20;100.00
24746;BME280;12845;52.042;6.838;2023-08-06T01:35:56;-18519.72;;;18.31;100.00
24746;BME280;12845;52.042;6.838;2023-08-06T01:38:22;-18519.72;;;18.31;100.00
24746;BME280;12845;52.042;6.838;2023-08-06T01:40:48;-18516.84;;;18.20;100.00
24746;BME280;12845;52.042;6.838;2023-08-06T01:43:13;-18517.53;;;18.22;100.00
24746;BME280;12845;52.042;6.838;2023-08-06T01:45:38;-18516.03;;;18.17;100.00
24746;BME280;12845;52.042;6.838;2023-08-06T01:48:04;-18514.53;;;18.11;100.00
24746;BME280;12845;52.042;6.838;2023-08-06T01:50:29;-18513.97;;;18.09;100.00
24746;BME280;12845;52.042;6.838;2023-08-06T01:52:54;-18515.47;;;18.15;100.00
24746;BME280;12845;52.042;6.838;2023-08-06T01:55:20;-18514.25;;;18.10;100.00
24746;BME280;12845;52.042;6.838;2023-08-06T01:57:45;-18514.25;;;18.10;100.00
24746;BME280;12845;52.042;6.838;2023-08-06T02:00:11;-18509.88;;;17.94;100.00
24746;BME280;12845;52.042;6.838;2023-08-06T02:02:36;-18508.66;;;17.89;100.00
24746;BME280;12845;52.042;6.838;2023-08-06T02:05:02;-18510.44;;;17.96;100.00
24746;BME280;12845;52.042;6.838;2023-08-06T02:07:27;-18511.66;;;18.00;100.00
24746;BME280;12845;52.042;6.838;2023-08-06T02:09:52;-18510.72;;;17.97;100.00
24746;BME280;12845;52.042;6.838;2023-08-06T02:12:18;-18509.88;;;17.94;100.00
24746;BME280;12845;52.042;6.838;2023-08-06T02:14:43;-18510.16;;;17.95;100.00
24746;BME280;12845;52.042;6.838;2023-08-06T02:17:08;-18509.88;;;17.94;100.00
24746;BME280;12845;52.042;6.838;2023-08-06T02:19:34;-18509.34;;;17.92;100.00
24746;BME280;12845;52.042;6.838;2023-08-06T02:21:59;-18510.97;;;17.98;100.00
24746;BME280;12845;52.042;6.838;2023-08-06T02:24:24;-18510.03;;;17.94;100.00
24746;BME280;12845;52.042;6.838;2023-08-06T02:26:50;-18511.94;;;18.01;100.00
24746;BME280;12845;52.042;6.838;2023-08-06T02:29:17;-18509.22;;;17.91;100.00
24746;BME280;12845;52.042;6.838;2023-08-06T02:31:43;-18509.06;;;17.91;100.00
24746;BME280;12845;52.042;6.838;2023-08-06T02:34:08;-18508.94;;;17.90;100.00
24746;BME280;12845;52.042;6.838;2023-08-06T02:36:33;-18509.47;;;17.92;100.00
24746;BME280;12845;52.042;6.838;2023-08-06T02:38:59;-18508.81;;;17.90;100.00
24746;BME280;12845;52.042;6.838;2023-08-06T02:41:24;-18507.31;;;17.84;100.00
24746;BME280;12845;52.042;6.838;2023-08-06T02:43:49;-18506.34;;;17.80;100.00
24746;BME280;12845;52.042;6.838;2023-08-06T02:46:15;-18506.63;;;17.81;100.00
24746;BME280;12845;52.042;6.838;2023-08-06T02:48:40;-18509.75;;;17.93;100.00
24746;BME280;12845;52.042;6.838;2023-08-06T02:51:05;-18510.56;;;17.96;100.00
24746;BME280;12845;52.042;6.838;2023-08-06T02:53:31;-18509.88;;;17.94;100.00
24746;BME280;12845;52.042;6.838;2023-08-06T02:55:56;-18509.75;;;17.93;100.00
24746;BME280;12845;52.042;6.838;2023-08-06T02:58:22;-18510.03;;;17.94;100.00
24746;BME280;12845;52.042;6.838;2023-08-06T03:01:04;-18510.56;;;17.96;100.00
24746;BME280;12845;52.042;6.838;2023-08-06T03:03:31;-18508.38;;;17.88;100.00
24746;BME280;12845;52.042;6.838;2023-08-06T03:05:56;-18506.88;;;17.83;100.00
24746;BME280;12845;52.042;6.838;2023-08-06T03:08:22;-18508.13;;;17.87;100.00
24746;BME280;12845;52.042;6.838;2023-08-06T03:10:50;-18512.06;;;18.02;100.00
24746;BME280;12845;52.042;6.838;2023-08-06T03:13:16;-18509.34;;;17.92;100.00
24746;BME280;12845;52.042;6.838;2023-08-06T03:15:42;-18508.25;;;17.88;100.00
24746;BME280;12845;52.042;6.838;2023-08-06T03:18:07;-18508.13;;;17.87;100.00
24746;BME280;12845;52.042;6.838;2023-08-06T03:20:33;-18508.81;;;17.90;100.00
24746;BME280;12845;52.042;6.838;2023-08-06T03:22:58;-18505.53;;;17.77;100.00
24746;BME280;12845;52.042;6.838;2023-08-06T03:25:24;-18506.63;;;17.81;100.00
24746;BME280;12845;52.042;6.838;2023-08-06T03:27:49;-18506.88;;;17.83;100.00
24746;BME280;12845;52.042;6.838;2023-08-06T03:30:14;-18506.75;;;17.82;100.00
24746;BME280;12845;52.042;6.838;2023-08-06T03:32:40;-18505.25;;;17.76;100.00
24746;BME280;12845;52.042;6.838;2023-08-06T03:35:05;-18504.03;;;17.72;100.00
24746;BME280;12845;52.042;6.838;2023-08-06T03:37:31;-18500.88;;;17.60;100.00
24746;BME280;12845;52.042;6.838;2023-08-06T03:39:56;-18501.69;;;17.63;100.00
24746;BME280;12845;52.042;6.838;2023-08-06T03:42:21;-18505.25;;;17.76;100.00
24746;BME280;12845;52.042;6.838;2023-08-06T03:44:47;-18503.75;;;17.71;100.00
24746;BME280;12845;52.042;6.838;2023-08-06T03:47:13;-18505.94;;;17.79;100.00
24746;BME280;12845;52.042;6.838;2023-08-06T03:49:38;-18510.16;;;17.95;100.00
24746;BME280;12845;52.042;6.838;2023-08-06T03:52:04;-18507.31;;;17.84;100.00
24746;BME280;12845;52.042;6.838;2023-08-06T03:54:30;-18506.06;;;17.79;100.00
24746;BME280;12845;52.042;6.838;2023-08-06T03:56:55;-18503.19;;;17.69;100.00
24746;BME280;12845;52.042;6.838;2023-08-06T03:59:20;-18504.84;;;17.75;100.00
24746;BME280;12845;52.042;6.838;2023-08-06T04:01:46;-18503.63;;;17.70;100.00
24746;BME280;12845;52.042;6.838;2023-08-06T04:04:11;-18501.56;;;17.63;100.00
24746;BME280;12845;52.042;6.838;2023-08-06T04:06:37;-18498.69;;;17.52;100.00
24746;BME280;12845;52.042;6.838;2023-08-06T04:09:02;-18495.41;;;17.40;100.00
24746;BME280;12845;52.042;6.838;2023-08-06T04:11:28;-18495.56;;;17.40;100.00
24746;BME280;12845;52.042;6.838;2023-08-06T04:13:53;-18497.75;;;17.48;100.00
24746;BME280;12845;52.042;6.838;2023-08-06T04:16:20;-18499.25;;;17.54;100.00
24746;BME280;12845;52.042;6.838;2023-08-06T04:18:46;-18498.97;;;17.53;100.00
24746;BME280;12845;52.042;6.838;2023-08-06T04:21:11;-18501.44;;;17.62;100.00
24746;BME280;12845;52.042;6.838;2023-08-06T04:23:37;-18502.38;;;17.66;100.00
24746;BME280;12845;52.042;6.838;2023-08-06T04:26:02;-18501.28;;;17.62;100.00
24746;BME280;12845;52.042;6.838;2023-08-06T04:28:27;-18499.66;;;17.55;100.00
24746;BME280;12845;52.042;6.838;2023-08-06T04:30:53;-18498.03;;;17.49;100.00
24746;BME280;12845;52.042;6.838;2023-08-06T04:33:19;-18498.03;;;17.49;100.00
24746;BME280;12845;52.042;6.838;2023-08-06T04:35:45;-18498.97;;;17.53;100.00
24746;BME280;12845;52.042;6.838;2023-08-06T04:38:10;-18500.59;;;17.59;100.00
24746;BME280;12845;52.042;6.838;2023-08-06T04:40:36;-18500.34;;;17.58;100.00
24746;BME280;12845;52.042;6.838;2023-08-06T04:43:02;-18501.16;;;17.61;100.00
24746;BME280;12845;52.042;6.838;2023-08-06T04:45:27;-18503.06;;;17.68;100.00
24746;BME280;12845;52.042;6.838;2023-08-06T04:47:52;-18505.38;;;17.77;100.00
24746;BME280;12845;52.042;6.838;2023-08-06T04:50:19;-18504.69;;;17.74;100.00
24746;BME280;12845;52.042;6.838;2023-08-06T04:52:44;-18504.69;;;17.74;100.00
24746;BME280;12845;52.042;6.838;2023-08-06T04:55:10;-18504.16;;;17.72;100.00
24746;BME280;12845;52.042;6.838;2023-08-06T04:57:35;-18505.66;;;17.78;100.00
24746;BME280;12845;52.042;6.838;2023-08-06T05:00:01;-18512.63;;;18.04;100.00
24746;BME280;12845;52.042;6.838;2023-08-06T05:02:26;-18511.81;;;18.01;100.00
24746;BME280;12845;52.042;6.838;2023-08-06T05:04:51;-18512.34;;;18.03;100.00
24746;BME280;12845;52.042;6.838;2023-08-06T05:07:17;-18509.06;;;17.91;100.00
24746;BME280;12845;52.042;6.838;2023-08-06T05:09:42;-18511.66;;;18.00;100.00
24746;BME280;12845;52.042;6.838;2023-08-06T05:12:07;-18512.91;;;18.05;100.00
24746;BME280;12845;52.042;6.838;2023-08-06T05:14:33;-18511.53;;;18.00;100.00
24746;BME280;12845;52.042;6.838;2023-08-06T05:16:58;-18512.22;;;18.02;100.00
24746;BME280;12845;52.042;6.838;2023-08-06T05:19:24;-18515.34;;;18.14;100.00
24746;BME280;12845;52.042;6.838;2023-08-06T05:21:49;-18513.97;;;18.09;100.00
24746;BME280;12845;52.042;6.838;2023-08-06T05:24:14;-18514.25;;;18.10;100.00
24746;BME280;12845;52.042;6.838;2023-08-06T05:26:39;-18516.44;;;18.18;100.00
24746;BME280;12845;52.042;6.838;2023-08-06T05:29:05;-18515.63;;;18.15;100.00
24746;BME280;12845;52.042;6.838;2023-08-06T05:31:30;-18518.06;;;18.24;100.00
24746;BME280;12845;52.042;6.838;2023-08-06T05:33:56;-18519.31;;;18.29;100.00
24746;BME280;12845;52.042;6.838;2023-08-06T05:36:21;-18519.44;;;18.30;100.00
24746;BME280;12845;52.042;6.838;2023-08-06T05:38:47;-18525.56;;;18.53;100.00
24746;BME280;12845;52.042;6.838;2023-08-06T05:41:12;-18527.88;;;18.61;100.00
24746;BME280;12845;52.042;6.838;2023-08-06T05:43:37;-18533.06;;;18.81;100.00
24746;BME280;12845;52.042;6.838;2023-08-06T05:46:03;-18532.25;;;18.78;100.00
24746;BME280;12845;52.042;6.838;2023-08-06T05:48:29;-18533.63;;;18.83;100.00
24746;BME280;12845;52.042;6.838;2023-08-06T05:50:54;-18536.91;;;18.95;100.00
24746;BME280;12845;52.042;6.838;2023-08-06T05:53:20;-18533.06;;;18.81;100.00
24746;BME280;12845;52.042;6.838;2023-08-06T05:55:45;-18539.50;;;19.05;100.00
24746;BME280;12845;52.042;6.838;2023-08-06T05:58:11;-18538.41;;;19.01;100.00
24746;BME280;12845;52.042;6.838;2023-08-06T06:00:36;-18537.03;;;18.96;100.00
24746;BME280;12845;52.042;6.838;2023-08-06T06:03:01;-18533.63;;;18.83;100.00
24746;BME280;12845;52.042;6.838;2023-08-06T06:05:27;-18531.44;;;18.75;100.00
24746;BME280;12845;52.042;6.838;2023-08-06T06:07:53;-18531.16;;;18.74;100.00
24746;BME280;12845;52.042;6.838;2023-08-06T06:10:18;-18534.56;;;18.86;100.00
24746;BME280;12845;52.042;6.838;2023-08-06T06:12:44;-18533.22;;;18.81;100.00
24746;BME280;12845;52.042;6.838;2023-08-06T06:15:09;-18533.22;;;18.81;100.00
24746;BME280;12845;52.042;6.838;2023-08-06T06:17:35;-18530.34;;;18.70;100.00
24746;BME280;12845;52.042;6.838;2023-08-06T06:20:00;-18530.06;;;18.69;100.00
24746;BME280;12845;52.042;6.838;2023-08-06T06:22:26;-18530.34;;;18.70;100.00
24746;BME280;12845;52.042;6.838;2023-08-06T06:24:51;-18531.44;;;18.75;100.00
24746;BME280;12845;52.042;6.838;2023-08-06T06:27:16;-18532.66;;;18.79;100.00
24746;BME280;12845;52.042;6.838;2023-08-06T06:29:42;-18532.25;;;18.78;100.00
24746;BME280;12845;52.042;6.838;2023-08-06T06:32:16;-18532.13;;;18.77;100.00
24746;BME280;12845;52.042;6.838;2023-08-06T06:34:44;-18534.31;;;18.85;100.00
24746;BME280;12845;52.042;6.838;2023-08-06T06:37:09;-18542.34;;;19.15;100.00
24746;BME280;12845;52.042;6.838;2023-08-06T06:39:35;-18545.63;;;19.28;100.00
24746;BME280;12845;52.042;6.838;2023-08-06T06:42:00;-18543.84;;;19.21;100.00
24746;BME280;12845;52.042;6.838;2023-08-06T06:44:25;-18545.63;;;19.28;100.00
24746;BME280;12845;52.042;6.838;2023-08-06T06:46:51;-18548.34;;;19.38;100.00
24746;BME280;12845;52.042;6.838;2023-08-06T06:49:16;-18553.91;;;19.59;100.00
24746;BME280;12845;52.042;6.838;2023-08-06T06:51:44;-18552.69;;;19.54;100.00
24746;BME280;12845;52.042;6.838;2023-08-06T06:54:10;-18548.59;;;19.39;100.00
24746;BME280;12845;52.042;6.838;2023-08-06T06:56:35;-18552.44;;;19.53;100.00
24746;BME280;12845;52.042;6.838;2023-08-06T06:59:00;-18551.75;;;19.51;100.00
24746;BME280;12845;52.042;6.838;2023-08-06T07:01:26;-18554.19;;;19.60;100.00
24746;BME280;12845;52.042;6.838;2023-08-06T07:03:51;-18553.78;;;19.58;100.00
24746;BME280;12845;52.042;6.838;2023-08-06T07:06:16;-18555.41;;;19.65;100.00
24746;BME280;12845;52.042;6.838;2023-08-06T07:08:44;-18554.59;;;19.61;100.00
24746;BME280;12845;52.042;6.838;2023-08-06T07:11:09;-18550.09;;;19.45;100.00
24746;BME280;12845;52.042;6.838;2023-08-06T07:13:34;-18553.66;;;19.58;100.00
24746;BME280;12845;52.042;6.838;2023-08-06T07:16:00;-18549.03;;;19.41;100.00
24746;BME280;12845;52.042;6.838;2023-08-06T07:18:25;-18549.28;;;19.42;100.00
24746;BME280;12845;52.042;6.838;2023-08-06T07:20:52;-18554.59;;;19.61;100.00
24746;BME280;12845;52.042;6.838;2023-08-06T07:23:25;-18553.66;;;19.58;100.00
24746;BME280;12845;52.042;6.838;2023-08-06T07:25:51;-18557.88;;;19.74;100.00
24746;BME280;12845;52.042;6.838;2023-08-06T07:28:16;-18556.38;;;19.68;100.00
24746;BME280;12845;52.042;6.838;2023-08-06T07:30:43;-18556.38;;;19.68;100.00
24746;BME280;12845;52.042;6.838;2023-08-06T07:33:08;-18556.66;;;19.69;100.00
24746;BME280;12845;52.042;6.838;2023-08-06T07:35:34;-18561.97;;;19.89;100.00
24746;BME280;12845;52.042;6.838;2023-08-06T07:38:00;-18561.97;;;19.89;100.00
24746;BME280;12845;52.042;6.838;2023-08-06T07:40:25;-18559.91;;;19.81;100.00
24746;BME280;12845;52.042;6.838;2023-08-06T07:42:51;-18566.19;;;20.05;100.00
24746;BME280;12845;52.042;6.838;2023-08-06T07:45:16;-18562.38;;;19.91;100.00
24746;BME280;12845;52.042;6.838;2023-08-06T07:47:41;-18570.13;;;20.20;100.00
24746;BME280;12845;52.042;6.838;2023-08-06T07:50:08;-18566.59;;;20.06;100.00
24746;BME280;12845;52.042;6.838;2023-08-06T07:52:34;-18568.09;;;20.12;100.00
24746;BME280;12845;52.042;6.838;2023-08-06T07:54:59;-18569.72;;;20.18;100.00
24746;BME280;12845;52.042;6.838;2023-08-06T07:57:26;-18573.66;;;20.33;100.00
24746;BME280;12845;52.042;6.838;2023-08-06T07:59:52;-18577.47;;;20.47;100.00
24746;BME280;12845;52.042;6.838;2023-08-06T08:02:19;-18581.03;;;20.61;100.00
24746;BME280;12845;52.042;6.838;2023-08-06T08:04:45;-18575.56;;;20.40;100.00
24746;BME280;12845;52.042;6.838;2023-08-06T08:07:12;-18573.94;;;20.34;100.00
24746;BME280;12845;52.042;6.838;2023-08-06T08:09:38;-18581.84;;;20.64;100.00
24746;BME280;12845;52.042;6.838;2023-08-06T08:12:04;-18582.09;;;20.65;100.00
24746;BME280;12845;52.042;6.838;2023-08-06T08:14:30;-18583.88;;;20.71;100.00
24746;BME280;12845;52.042;6.838;2023-08-06T08:17:01;-18587.41;;;20.85;100.00
24746;BME280;12845;52.042;6.838;2023-08-06T08:19:27;-18588.09;;;20.87;100.00
24746;BME280;12845;52.042;6.838;2023-08-06T08:21:53;-18585.91;;;20.79;100.00
24746;BME280;12845;52.042;6.838;2023-08-06T08:24:19;-18586.72;;;20.82;100.00
24746;BME280;12845;52.042;6.838;2023-08-06T08:26:45;-18585.09;;;20.76;100.00
24746;BME280;12845;52.042;6.838;2023-08-06T08:29:10;-18583.47;;;20.70;100.00
24746;BME280;12845;52.042;6.838;2023-08-06T08:31:35;-18587.00;;;20.83;100.00
24746;BME280;12845;52.042;6.838;2023-08-06T08:34:04;-18589.88;;;20.94;100.00
24746;BME280;12845;52.042;6.838;2023-08-06T08:36:30;-18590.00;;;20.94;100.00
24746;BME280;12845;52.042;6.838;2023-08-06T08:38:56;-18584.97;;;20.76;100.00
24746;BME280;12845;52.042;6.838;2023-08-06T08:41:21;-18589.72;;;20.93;100.00
24746;BME280;12845;52.042;6.838;2023-08-06T08:43:49;-18591.63;;;21.01;100.00
24746;BME280;12845;52.042;6.838;2023-08-06T08:46:15;-18590.53;;;20.96;100.00
24746;BME280;12845;52.042;6.838;2023-08-06T08:48:42;-18595.16;;;21.14;100.00
24746;BME280;12845;52.042;6.838;2023-08-06T08:51:08;-18596.78;;;21.20;100.00
24746;BME280;12845;52.042;6.838;2023-08-06T08:53:35;-18599.53;;;21.30;100.00
24746;BME280;12845;52.042;6.838;2023-08-06T08:56:04;-18600.59;;;21.34;100.00
24746;BME280;12845;52.042;6.838;2023-08-06T08:58:30;-18602.91;;;21.43;100.00
24746;BME280;12845;52.042;6.838;2023-08-06T09:00:55;-18609.03;;;21.66;100.00
24746;BME280;12845;52.042;6.838;2023-08-06T09:03:22;-18612.31;;;21.78;100.00
24746;BME280;12845;52.042;6.838;2023-08-06T09:05:50;-18614.19;;;21.85;100.00
24746;BME280;12845;52.042;6.838;2023-08-06T09:08:18;-18612.03;;;21.77;100.00
24746;BME280;12845;52.042;6.838;2023-08-06T09:10:44;-18615.16;;;21.89;100.00
24746;BME280;12845;52.042;6.838;2023-08-06T09:13:13;-18621.94;;;22.15;100.00
24746;BME280;12845;52.042;6.838;2023-08-06T09:15:39;-18617.19;;;21.97;100.00
24746;BME280;12845;52.042;6.838;2023-08-06T09:18:11;-18616.09;;;21.93;100.00
24746;BME280;12845;52.042;6.838;2023-08-06T09:20:38;-18619.78;;;22.06;100.00
24746;BME280;12845;52.042;6.838;2023-08-06T09:23:10;-18620.59;;;22.09;100.00
24746;BME280;12845;52.042;6.838;2023-08-06T09:25:38;-18628.88;;;22.41;100.00
24746;BME280;12845;52.042;6.838;2023-08-06T09:28:05;-18634.56;;;22.62;100.00
24746;BME280;12845;52.042;6.838;2023-08-06T09:30:32;-18632.28;;;22.53;100.00
24746;BME280;12845;52.042;6.838;2023-08-06T09:32:58;-18634.84;;;22.63;100.00
24746;BME280;12845;52.042;6.838;2023-08-06T09:35:24;-18629.00;;;22.41;100.00
24746;BME280;12845;52.042;6.838;2023-08-06T09:37:49;-18635.13;;;22.64;100.00
24746;BME280;12845;52.042;6.838;2023-08-06T09:40:30;-18636.75;;;22.70;100.00
24746;BME280;12845;52.042;6.838;2023-08-06T09:42:57;-18630.09;;;22.45;100.00
24746;BME280;12845;52.042;6.838;2023-08-06T09:45:22;-18634.56;;;22.62;100.00
24746;BME280;12845;52.042;6.838;2023-08-06T09:47:49;-18635.13;;;22.64;100.00
24746;BME280;12845;52.042;6.838;2023-08-06T09:50:17;-18633.75;;;22.59;100.00
24746;BME280;12845;52.042;6.838;2023-08-06T09:52:43;-18630.91;;;22.48;100.00
24746;BME280;12845;52.042;6.838;2023-08-06T09:55:11;-18630.63;;;22.47;100.00
24746;BME280;12845;52.042;6.838;2023-08-06T09:57:37;-18634.03;;;22.60;100.00
24746;BME280;12845;52.042;6.838;2023-08-06T10:00:03;-18632.13;;;22.53;100.00
24746;BME280;12845;52.042;6.838;2023-08-06T10:02:31;-18632.00;;;22.52;100.00
24746;BME280;12845;52.042;6.838;2023-08-06T10:04:57;-18635.78;;;22.67;100.00
24746;BME280;12845;52.042;6.838;2023-08-06T10:07:23;-18641.50;;;22.88;100.00
24746;BME280;12845;52.042;6.838;2023-08-06T10:09:49;-18642.72;;;22.93;100.00
24746;BME280;12845;52.042;6.838;2023-08-06T10:12:15;-18647.47;;;23.11;100.00
24746;BME280;12845;52.042;6.838;2023-08-06T10:14:43;-18655.06;;;23.39;100.00
24746;BME280;12845;52.042;6.838;2023-08-06T10:17:13;-18648.97;;;23.16;100.00
24746;BME280;12845;52.042;6.838;2023-08-06T10:19:39;-18644.06;;;22.98;100.00
24746;BME280;12845;52.042;6.838;2023-08-06T10:22:14;-18648.00;;;23.13;100.00
24746;BME280;12845;52.042;6.838;2023-08-06T10:24:57;-18650.72;;;23.23;100.00
24746;BME280;12845;52.042;6.838;2023-08-06T10:27:28;-18640.00;;;22.83;100.00
24746;BME280;12845;52.042;6.838;2023-08-06T10:30:28;-18647.34;;;23.10;100.00
24746;BME280;12845;52.042;6.838;2023-08-06T10:33:02;-18649.50;;;23.18;100.00
24746;BME280;12845;52.042;6.838;2023-08-06T10:35:40;-18650.19;;;23.21;100.00
24746;BME280;12845;52.042;6.838;2023-08-06T10:46:02;-18643.13;;;22.94;100.00
24746;BME280;12845;52.042;6.838;2023-08-06T10:48:38;-18649.78;;;23.19;100.00
24746;BME280;12845;52.042;6.838;2023-08-06T10:51:08;-18650.88;;;23.24;100.00
24746;BME280;12845;52.042;6.838;2023-08-06T10:53:34;-18654.13;;;23.36;100.00
24746;BME280;12845;52.042;6.838;2023-08-06T10:56:00;-18655.34;;;23.40;100.00
24746;BME280;12845;52.042;6.838;2023-08-06T10:58:25;-18666.06;;;23.81;100.00
24746;BME280;12845;52.042;6.838;2023-08-06T11:00:55;-18677.97;;;24.26;100.00
24746;BME280;12845;52.042;6.838;2023-08-06T11:03:21;-18676.75;;;24.21;100.00
24746;BME280;12845;52.042;6.838;2023-08-06T11:05:52;-18682.88;;;24.44;100.00
24746;BME280;12845;52.042;6.838;2023-08-06T11:08:27;-18677.16;;;24.23;100.00
24746;BME280;12845;52.042;6.838;2023-08-06T11:10:53;-18676.22;;;24.19;100.00
24746;BME280;12845;52.042;6.838;2023-08-06T11:13:20;-18669.03;;;23.92;100.00
24746;BME280;12845;52.042;6.838;2023-08-06T11:15:45;-18669.03;;;23.92;100.00
24746;BME280;12845;52.042;6.838;2023-08-06T11:18:11;-18667.81;;;23.87;100.00
24746;BME280;12845;52.042;6.838;2023-08-06T11:20:37;-18663.34;;;23.71;100.00
24746;BME280;12845;52.042;6.838;2023-08-06T11:23:03;-18666.06;;;23.81;100.00
24746;BME280;12845;52.042;6.838;2023-08-06T11:25:28;-18667.28;;;23.85;100.00
24746;BME280;12845;52.042;6.838;2023-08-06T11:27:54;-18664.84;;;23.76;100.00
24746;BME280;12845;52.042;6.838;2023-08-06T11:30:19;-18663.88;;;23.73;100.00
24746;BME280;12845;52.042;6.838;2023-08-06T11:32:48;-18668.78;;;23.91;100.00
24746;BME280;12845;52.042;6.838;2023-08-06T11:35:15;-18667.41;;;23.86;100.00
24746;BME280;12845;52.042;6.838;2023-08-06T11:37:44;-18668.38;;;23.90;100.00
24746;BME280;12845;52.042;6.838;2023-08-06T11:40:10;-18663.88;;;23.73;100.00
24746;BME280;12845;52.042;6.838;2023-08-06T11:42:37;-18665.25;;;23.78;100.00
24746;BME280;12845;52.042;6.838;2023-08-06T11:45:03;-18667.81;;;23.87;100.00
24746;BME280;12845;52.042;6.838;2023-08-06T11:47:30;-18661.56;;;23.64;100.00
24746;BME280;12845;52.042;6.838;2023-08-06T11:49:55;-18662.25;;;23.67;100.00
24746;BME280;12845;52.042;6.838;2023-08-06T11:52:25;-18656.84;;;23.46;100.00
24746;BME280;12845;52.042;6.838;2023-08-06T11:55:04;-18658.88;;;23.54;100.00
24746;BME280;12845;52.042;6.838;2023-08-06T11:57:33;-18659.81;;;23.57;100.00
24746;BME280;12845;52.042;6.838;2023-08-06T12:00:04;-18661.72;;;23.64;100.00
24746;BME280;12845;52.042;6.838;2023-08-06T12:02:34;-18661.03;;;23.62;100.00
24746;BME280;12845;52.042;6.838;2023-08-06T12:05:04;-18658.19;;;23.51;100.00
24746;BME280;12845;52.042;6.838;2023-08-06T12:07:37;-18660.09;;;23.58;100.00
24746;BME280;12845;52.042;6.838;2023-08-06T12:10:03;-18663.47;;;23.71;100.00
24746;BME280;12845;52.042;6.838;2023-08-06T12:12:29;-18661.72;;;23.64;100.00
24746;BME280;12845;52.042;6.838;2023-08-06T12:14:57;-18657.66;;;23.49;100.00
24746;BME280;12845;52.042;6.838;2023-08-06T12:17:24;-18657.50;;;23.49;100.00
24746;BME280;12845;52.042;6.838;2023-08-06T12:19:49;-18652.75;;;23.31;100.00
24746;BME280;12845;52.042;6.838;2023-08-06T12:22:15;-18651.13;;;23.25;100.00
24746;BME280;12845;52.042;6.838;2023-08-06T12:24:45;-18657.09;;;23.47;100.00
24746;BME280;12845;52.042;6.838;2023-08-06T12:27:11;-18654.78;;;23.38;100.00
24746;BME280;12845;52.042;6.838;2023-08-06T12:29:40;-18648.81;;;23.16;100.00
24746;BME280;12845;52.042;6.838;2023-08-06T12:32:06;-18648.16;;;23.13;100.00
24746;BME280;12845;52.042;6.838;2023-08-06T12:34:31;-18645.16;;;23.02;100.00
24746;BME280;12845;52.042;6.838;2023-08-06T12:36:57;-18632.53;;;22.55;100.00
24746;BME280;12845;52.042;6.838;2023-08-06T12:39:22;-18627.78;;;22.37;100.00
24746;BME280;12845;52.042;6.838;2023-08-06T12:41:47;-18639.59;;;22.81;100.00
24746;BME280;12845;52.042;6.838;2023-08-06T12:44:14;-18642.44;;;22.92;100.00
24746;BME280;12845;52.042;6.838;2023-08-06T12:46:39;-18636.88;;;22.71;100.00
24746;BME280;12845;52.042;6.838;2023-08-06T12:49:04;-18636.47;;;22.69;100.00
24746;BME280;12845;52.042;6.838;2023-08-06T12:51:30;-18639.59;;;22.81;100.00